sensor_id;sensor_type;location;lat;lon;timestamp;P1;durP1;ratioP1;P2;durP2;ratioP2
2538;SDS011;1280;49.760;9.664;2022-12-18T00:01:28;61.65;;;28.80;;
2538;SDS011;1280;49.760;9.664;2022-12-18T00:03:59;58.47;;;29.23;;
2538;SDS011;1280;49.760;9.664;2022-12-18T00:06:29;49.55;;;27.20;;
2538;SDS011;1280;49.760;9.664;2022-12-18T00:09:00;53.10;;;25.30;;
2538;SDS011;1280;49.760;9.664;2022-12-18T00:11:30;49.38;;;24.58;;
2538;SDS011;1280;49.760;9.664;2022-12-18T00:13:59;53.67;;;24.35;;
2538;SDS011;1280;49.760;9.664;2022-12-18T00:16:27;49.22;;;25.38;;
2538;SDS011;1280;49.760;9.664;2022-12-18T00:18:56;49.28;;;25.42;;
2538;SDS011;1280;49.760;9.664;2022-12-18T00:21:25;45.45;;;25.15;;
2538;SDS011;1280;49.760;9.664;2022-12-18T00:23:54;44.92;;;23.38;;
2538;SDS011;1280;49.760;9.664;2022-12-18T00:26:24;52.30;;;26.38;;
2538;SDS011;1280;49.760;9.664;2022-12-18T00:28:58;51.22;;;25.77;;
2538;SDS011;1280;49.760;9.664;2022-12-18T00:31:29;44.35;;;25.42;;
2538;SDS011;1280;49.760;9.664;2022-12-18T00:33:59;51.53;;;24.77;;
2538;SDS011;1280;49.760;9.664;2022-12-18T00:36:28;48.92;;;24.48;;
2538;SDS011;1280;49.760;9.664;2022-12-18T00:38:58;61.55;;;26.00;;
2538;SDS011;1280;49.760;9.664;2022-12-18T00:41:28;46.58;;;25.85;;
2538;SDS011;1280;49.760;9.664;2022-12-18T00:44:15;60.05;;;26.65;;
2538;SDS011;1280;49.760;9.664;2022-12-18T00:46:44;54.72;;;26.80;;
2538;SDS011;1280;49.760;9.664;2022-12-18T00:49:13;51.90;;;27.17;;
2538;SDS011;1280;49.760;9.664;2022-12-18T00:51:42;52.50;;;27.75;;
2538;SDS011;1280;49.760;9.664;2022-12-18T00:54:11;58.63;;;26.73;;
2538;SDS011;1280;49.760;9.664;2022-12-18T00:56:40;53.53;;;27.65;;
2538;SDS011;1280;49.760;9.664;2022-12-18T00:59:15;51.47;;;26.25;;
2538;SDS011;1280;49.760;9.664;2022-12-18T01:01:44;54.60;;;25.58;;
2538;SDS011;1280;49.760;9.664;2022-12-18T01:04:13;52.55;;;27.73;;
2538;SDS011;1280;49.760;9.664;2022-12-18T01:06:44;51.85;;;26.63;;
2538;SDS011;1280;49.760;9.664;2022-12-18T01:09:12;60.08;;;29.05;;
2538;SDS011;1280;49.760;9.664;2022-12-18T01:11:41;72.93;;;31.48;;
2538;SDS011;1280;49.760;9.664;2022-12-18T01:14:10;64.30;;;30.13;;
2538;SDS011;1280;49.760;9.664;2022-12-18T01:16:37;53.75;;;26.67;;
2538;SDS011;1280;49.760;9.664;2022-12-18T01:19:06;47.70;;;27.25;;
2538;SDS011;1280;49.760;9.664;2022-12-18T01:21:34;56.60;;;29.00;;
2538;SDS011;1280;49.760;9.664;2022-12-18T01:24:03;57.63;;;28.85;;
2538;SDS011;1280;49.760;9.664;2022-12-18T01:26:32;54.45;;;26.45;;
2538;SDS011;1280;49.760;9.664;2022-12-18T01:29:01;48.70;;;24.85;;
2538;SDS011;1280;49.760;9.664;2022-12-18T01:31:30;53.90;;;26.90;;
2538;SDS011;1280;49.760;9.664;2022-12-18T01:34:01;62.00;;;28.85;;
2538;SDS011;1280;49.760;9.664;2022-12-18T01:36:31;92.43;;;38.50;;
2538;SDS011;1280;49.760;9.664;2022-12-18T01:39:01;87.53;;;33.78;;
2538;SDS011;1280;49.760;9.664;2022-12-18T01:41:30;93.88;;;37.63;;
2538;SDS011;1280;49.760;9.664;2022-12-18T01:47:33;60.28;;;27.83;;
2538;SDS011;1280;49.760;9.664;2022-12-18T01:50:06;59.50;;;26.05;;
2538;SDS011;1280;49.760;9.664;2022-12-18T01:52:37;65.25;;;30.25;;
2538;SDS011;1280;49.760;9.664;2022-12-18T01:55:07;54.20;;;27.48;;
2538;SDS011;1280;49.760;9.664;2022-12-18T01:57:37;61.35;;;27.38;;
2538;SDS011;1280;49.760;9.664;2022-12-18T02:00:07;48.75;;;25.05;;
2538;SDS011;1280;49.760;9.664;2022-12-18T02:02:41;62.45;;;30.95;;
2538;SDS011;1280;49.760;9.664;2022-12-18T02:05:12;65.00;;;27.70;;
2538;SDS011;1280;49.760;9.664;2022-12-18T02:07:46;56.75;;;27.38;;
2538;SDS011;1280;49.760;9.664;2022-12-18T02:10:27;59.72;;;27.38;;
2538;SDS011;1280;49.760;9.664;2022-12-18T02:13:00;59.03;;;26.40;;
2538;SDS011;1280;49.760;9.664;2022-12-18T02:15:38;64.03;;;29.15;;
2538;SDS011;1280;49.760;9.664;2022-12-18T02:18:13;55.60;;;27.10;;
2538;SDS011;1280;49.760;9.664;2022-12-18T02:20:47;51.40;;;26.67;;
2538;SDS011;1280;49.760;9.664;2022-12-18T02:23:23;54.17;;;27.25;;
2538;SDS011;1280;49.760;9.664;2022-12-18T02:26:13;55.58;;;29.88;;
2538;SDS011;1280;49.760;9.664;2022-12-18T02:28:49;66.18;;;27.65;;
2538;SDS011;1280;49.760;9.664;2022-12-18T02:31:25;53.53;;;28.25;;
2538;SDS011;1280;49.760;9.664;2022-12-18T02:33:58;63.88;;;27.20;;
2538;SDS011;1280;49.760;9.664;2022-12-18T02:36:34;57.75;;;29.45;;
2538;SDS011;1280;49.760;9.664;2022-12-18T02:39:05;59.95;;;25.08;;
2538;SDS011;1280;49.760;9.664;2022-12-18T02:41:42;53.65;;;25.85;;
2538;SDS011;1280;49.760;9.664;2022-12-18T02:44:10;53.40;;;27.05;;
2538;SDS011;1280;49.760;9.664;2022-12-18T02:46:42;50.03;;;27.48;;
2538;SDS011;1280;49.760;9.664;2022-12-18T02:49:21;46.58;;;27.13;;
2538;SDS011;1280;49.760;9.664;2022-12-18T02:52:00;47.45;;;25.10;;
2538;SDS011;1280;49.760;9.664;2022-12-18T02:54:36;61.65;;;27.17;;
2538;SDS011;1280;49.760;9.664;2022-12-18T02:57:16;54.78;;;25.10;;
2538;SDS011;1280;49.760;9.664;2022-12-18T02:59:52;49.58;;;25.55;;
2538;SDS011;1280;49.760;9.664;2022-12-18T03:02:26;54.15;;;27.77;;
2538;SDS011;1280;49.760;9.664;2022-12-18T03:05:02;45.60;;;25.10;;
2538;SDS011;1280;49.760;9.664;2022-12-18T03:07:35;47.83;;;24.35;;
2538;SDS011;1280;49.760;9.664;2022-12-18T03:10:10;57.08;;;28.00;;
2538;SDS011;1280;49.760;9.664;2022-12-18T03:12:45;58.15;;;28.88;;
2538;SDS011;1280;49.760;9.664;2022-12-18T03:15:19;59.45;;;27.45;;
2538;SDS011;1280;49.760;9.664;2022-12-18T03:17:57;54.08;;;26.10;;
2538;SDS011;1280;49.760;9.664;2022-12-18T03:20:31;85.72;;;36.60;;
2538;SDS011;1280;49.760;9.664;2022-12-18T03:23:03;77.05;;;34.70;;
2538;SDS011;1280;49.760;9.664;2022-12-18T03:25:36;71.55;;;30.33;;
2538;SDS011;1280;49.760;9.664;2022-12-18T03:28:10;69.60;;;33.20;;
2538;SDS011;1280;49.760;9.664;2022-12-18T03:30:43;54.60;;;29.33;;
2538;SDS011;1280;49.760;9.664;2022-12-18T03:33:14;57.35;;;29.05;;
2538;SDS011;1280;49.760;9.664;2022-12-18T03:35:48;60.28;;;26.90;;
2538;SDS011;1280;49.760;9.664;2022-12-18T03:38:17;49.42;;;28.45;;
2538;SDS011;1280;49.760;9.664;2022-12-18T03:40:51;62.55;;;28.65;;
2538;SDS011;1280;49.760;9.664;2022-12-18T03:43:34;50.72;;;27.08;;
2538;SDS011;1280;49.760;9.664;2022-12-18T03:46:12;52.10;;;26.83;;
2538;SDS011;1280;49.760;9.664;2022-12-18T03:48:48;52.67;;;25.60;;
2538;SDS011;1280;49.760;9.664;2022-12-18T03:51:22;53.63;;;26.50;;
2538;SDS011;1280;49.760;9.664;2022-12-18T03:53:55;57.38;;;27.90;;
2538;SDS011;1280;49.760;9.664;2022-12-18T03:56:31;46.78;;;25.77;;
2538;SDS011;1280;49.760;9.664;2022-12-18T03:59:04;51.83;;;24.98;;
2538;SDS011;1280;49.760;9.664;2022-12-18T04:01:37;64.05;;;30.20;;
2538;SDS011;1280;49.760;9.664;2022-12-18T04:04:10;48.75;;;28.98;;
2538;SDS011;1280;49.760;9.664;2022-12-18T04:06:42;62.42;;;30.63;;
2538;SDS011;1280;49.760;9.664;2022-12-18T04:09:12;52.28;;;28.30;;
2538;SDS011;1280;49.760;9.664;2022-12-18T04:11:45;65.90;;;30.30;;
2538;SDS011;1280;49.760;9.664;2022-12-18T04:14:16;48.67;;;26.20;;
2538;SDS011;1280;49.760;9.664;2022-12-18T04:16:48;63.80;;;25.92;;
2538;SDS011;1280;49.760;9.664;2022-12-18T04:19:20;57.50;;;27.48;;
2538;SDS011;1280;49.760;9.664;2022-12-18T04:21:49;54.10;;;24.80;;
2538;SDS011;1280;49.760;9.664;2022-12-18T04:24:17;49.17;;;25.20;;
2538;SDS011;1280;49.760;9.664;2022-12-18T04:27:10;63.80;;;28.65;;
2538;SDS011;1280;49.760;9.664;2022-12-18T04:29:44;68.15;;;31.92;;
2538;SDS011;1280;49.760;9.664;2022-12-18T04:32:13;68.28;;;30.60;;
2538;SDS011;1280;49.760;9.664;2022-12-18T04:34:43;50.67;;;24.35;;
2538;SDS011;1280;49.760;9.664;2022-12-18T04:37:10;42.78;;;21.70;;
2538;SDS011;1280;49.760;9.664;2022-12-18T04:39:39;42.78;;;23.65;;
2538;SDS011;1280;49.760;9.664;2022-12-18T04:42:14;46.58;;;23.63;;
2538;SDS011;1280;49.760;9.664;2022-12-18T04:44:43;52.25;;;24.80;;
2538;SDS011;1280;49.760;9.664;2022-12-18T04:47:11;53.22;;;25.10;;
2538;SDS011;1280;49.760;9.664;2022-12-18T04:49:39;55.08;;;25.08;;
2538;SDS011;1280;49.760;9.664;2022-12-18T04:52:07;47.92;;;26.05;;
2538;SDS011;1280;49.760;9.664;2022-12-18T04:54:35;44.00;;;23.05;;
2538;SDS011;1280;49.760;9.664;2022-12-18T04:57:03;55.58;;;26.35;;
2538;SDS011;1280;49.760;9.664;2022-12-18T04:59:31;54.38;;;25.85;;
2538;SDS011;1280;49.760;9.664;2022-12-18T05:02:00;46.38;;;23.83;;
2538;SDS011;1280;49.760;9.664;2022-12-18T05:04:28;46.55;;;23.27;;
2538;SDS011;1280;49.760;9.664;2022-12-18T05:06:56;40.78;;;22.55;;
2538;SDS011;1280;49.760;9.664;2022-12-18T05:09:24;48.05;;;23.50;;
2538;SDS011;1280;49.760;9.664;2022-12-18T05:11:52;80.63;;;34.60;;
2538;SDS011;1280;49.760;9.664;2022-12-18T05:14:20;69.53;;;31.92;;
2538;SDS011;1280;49.760;9.664;2022-12-18T05:16:48;64.30;;;29.05;;
2538;SDS011;1280;49.760;9.664;2022-12-18T05:19:17;64.35;;;28.67;;
2538;SDS011;1280;49.760;9.664;2022-12-18T05:21:45;41.55;;;24.70;;
2538;SDS011;1280;49.760;9.664;2022-12-18T05:24:13;47.88;;;25.55;;
2538;SDS011;1280;49.760;9.664;2022-12-18T05:26:41;42.15;;;22.05;;
2538;SDS011;1280;49.760;9.664;2022-12-18T05:29:09;48.45;;;24.08;;
2538;SDS011;1280;49.760;9.664;2022-12-18T05:31:39;43.42;;;22.65;;
2538;SDS011;1280;49.760;9.664;2022-12-18T05:34:08;47.88;;;24.88;;
2538;SDS011;1280;49.760;9.664;2022-12-18T05:36:39;42.85;;;23.13;;
2538;SDS011;1280;49.760;9.664;2022-12-18T05:39:07;57.45;;;26.17;;
2538;SDS011;1280;49.760;9.664;2022-12-18T05:41:35;49.25;;;24.02;;
2538;SDS011;1280;49.760;9.664;2022-12-18T05:44:03;44.42;;;22.95;;
2538;SDS011;1280;49.760;9.664;2022-12-18T05:46:31;44.35;;;24.40;;
2538;SDS011;1280;49.760;9.664;2022-12-18T05:48:59;50.10;;;24.73;;
2538;SDS011;1280;49.760;9.664;2022-12-18T05:51:28;49.45;;;24.10;;
2538;SDS011;1280;49.760;9.664;2022-12-18T05:53:57;49.55;;;25.85;;
2538;SDS011;1280;49.760;9.664;2022-12-18T05:56:25;48.47;;;24.23;;
2538;SDS011;1280;49.760;9.664;2022-12-18T05:58:53;53.03;;;26.05;;
2538;SDS011;1280;49.760;9.664;2022-12-18T06:01:22;46.28;;;25.30;;
2538;SDS011;1280;49.760;9.664;2022-12-18T06:03:52;45.60;;;23.38;;
2538;SDS011;1280;49.760;9.664;2022-12-18T06:06:21;45.47;;;23.42;;
2538;SDS011;1280;49.760;9.664;2022-12-18T06:08:51;45.10;;;23.17;;
2538;SDS011;1280;49.760;9.664;2022-12-18T06:11:21;45.17;;;22.08;;
2538;SDS011;1280;49.760;9.664;2022-12-18T06:13:51;49.67;;;22.58;;
2538;SDS011;1280;49.760;9.664;2022-12-18T06:16:24;46.97;;;23.35;;
2538;SDS011;1280;49.760;9.664;2022-12-18T06:18:52;51.10;;;25.48;;
2538;SDS011;1280;49.760;9.664;2022-12-18T06:21:22;46.28;;;23.23;;
2538;SDS011;1280;49.760;9.664;2022-12-18T06:23:50;42.45;;;21.75;;
2538;SDS011;1280;49.760;9.664;2022-12-18T06:26:18;42.70;;;23.50;;
2538;SDS011;1280;49.760;9.664;2022-12-18T06:28:53;42.58;;;24.13;;
2538;SDS011;1280;49.760;9.664;2022-12-18T06:31:21;39.80;;;23.33;;
2538;SDS011;1280;49.760;9.664;2022-12-18T06:33:49;54.83;;;26.25;;
2538;SDS011;1280;49.760;9.664;2022-12-18T06:36:17;41.10;;;22.95;;
2538;SDS011;1280;49.760;9.664;2022-12-18T06:38:45;50.85;;;26.80;;
2538;SDS011;1280;49.760;9.664;2022-12-18T06:41:14;60.70;;;26.77;;
2538;SDS011;1280;49.760;9.664;2022-12-18T06:43:45;79.20;;;36.53;;
2538;SDS011;1280;49.760;9.664;2022-12-18T06:46:13;88.10;;;36.92;;
2538;SDS011;1280;49.760;9.664;2022-12-18T06:48:41;85.63;;;34.60;;
2538;SDS011;1280;49.760;9.664;2022-12-18T06:51:09;75.53;;;33.28;;
2538;SDS011;1280;49.760;9.664;2022-12-18T06:53:37;70.60;;;31.92;;
2538;SDS011;1280;49.760;9.664;2022-12-18T06:56:06;77.22;;;34.08;;
2538;SDS011;1280;49.760;9.664;2022-12-18T06:58:36;104.35;;;38.80;;
2538;SDS011;1280;49.760;9.664;2022-12-18T07:01:06;90.63;;;37.05;;
2538;SDS011;1280;49.760;9.664;2022-12-18T07:03:36;79.20;;;32.42;;
2538;SDS011;1280;49.760;9.664;2022-12-18T07:06:05;72.75;;;30.05;;
2538;SDS011;1280;49.760;9.664;2022-12-18T07:08:39;70.22;;;29.50;;
2538;SDS011;1280;49.760;9.664;2022-12-18T07:11:07;79.72;;;31.35;;
2538;SDS011;1280;49.760;9.664;2022-12-18T07:13:35;76.28;;;32.65;;
2538;SDS011;1280;49.760;9.664;2022-12-18T07:16:06;86.63;;;35.05;;
2538;SDS011;1280;49.760;9.664;2022-12-18T07:18:46;77.63;;;32.10;;
2538;SDS011;1280;49.760;9.664;2022-12-18T07:21:15;92.88;;;34.38;;
2538;SDS011;1280;49.760;9.664;2022-12-18T07:23:44;79.65;;;35.65;;
2538;SDS011;1280;49.760;9.664;2022-12-18T07:26:15;82.00;;;35.05;;
2538;SDS011;1280;49.760;9.664;2022-12-18T07:28:44;80.95;;;34.33;;
2538;SDS011;1280;49.760;9.664;2022-12-18T07:31:13;74.15;;;32.17;;
2538;SDS011;1280;49.760;9.664;2022-12-18T07:33:42;85.32;;;36.10;;
2538;SDS011;1280;49.760;9.664;2022-12-18T07:36:11;75.53;;;34.33;;
2538;SDS011;1280;49.760;9.664;2022-12-18T07:38:39;83.07;;;32.95;;
2538;SDS011;1280;49.760;9.664;2022-12-18T07:41:08;76.82;;;30.42;;
2538;SDS011;1280;49.760;9.664;2022-12-18T07:43:39;76.28;;;34.63;;
2538;SDS011;1280;49.760;9.664;2022-12-18T07:46:08;96.07;;;36.75;;
2538;SDS011;1280;49.760;9.664;2022-12-18T07:48:40;80.38;;;34.05;;
2538;SDS011;1280;49.760;9.664;2022-12-18T07:51:09;82.20;;;33.00;;
2538;SDS011;1280;49.760;9.664;2022-12-18T07:53:37;97.18;;;36.97;;
2538;SDS011;1280;49.760;9.664;2022-12-18T07:56:08;95.25;;;36.00;;
2538;SDS011;1280;49.760;9.664;2022-12-18T07:58:55;81.95;;;31.85;;
2538;SDS011;1280;49.760;9.664;2022-12-18T08:01:23;80.38;;;31.42;;
2538;SDS011;1280;49.760;9.664;2022-12-18T08:03:53;80.60;;;32.22;;
2538;SDS011;1280;49.760;9.664;2022-12-18T08:06:21;92.47;;;34.83;;
2538;SDS011;1280;49.760;9.664;2022-12-18T08:08:50;89.00;;;35.95;;
2538;SDS011;1280;49.760;9.664;2022-12-18T08:11:19;110.93;;;43.42;;
2538;SDS011;1280;49.760;9.664;2022-12-18T08:13:47;110.38;;;40.92;;
2538;SDS011;1280;49.760;9.664;2022-12-18T08:16:15;91.85;;;33.78;;
2538;SDS011;1280;49.760;9.664;2022-12-18T08:18:45;94.70;;;36.38;;
2538;SDS011;1280;49.760;9.664;2022-12-18T08:21:16;94.85;;;37.67;;
2538;SDS011;1280;49.760;9.664;2022-12-18T08:23:47;100.65;;;36.40;;
2538;SDS011;1280;49.760;9.664;2022-12-18T08:26:17;100.90;;;35.70;;
2538;SDS011;1280;49.760;9.664;2022-12-18T08:28:47;87.88;;;36.63;;
2538;SDS011;1280;49.760;9.664;2022-12-18T08:31:16;94.60;;;34.17;;
2538;SDS011;1280;49.760;9.664;2022-12-18T08:33:44;99.38;;;36.03;;
2538;SDS011;1280;49.760;9.664;2022-12-18T08:36:16;101.38;;;39.22;;
2538;SDS011;1280;49.760;9.664;2022-12-18T08:38:44;86.20;;;32.13;;
2538;SDS011;1280;49.760;9.664;2022-12-18T08:41:13;104.05;;;38.88;;
2538;SDS011;1280;49.760;9.664;2022-12-18T08:43:42;76.70;;;31.90;;
2538;SDS011;1280;49.760;9.664;2022-12-18T08:46:31;93.60;;;37.33;;
2538;SDS011;1280;49.760;9.664;2022-12-18T08:49:01;84.50;;;39.97;;
2538;SDS011;1280;49.760;9.664;2022-12-18T08:51:31;74.78;;;35.05;;
2538;SDS011;1280;49.760;9.664;2022-12-18T08:53:59;95.85;;;35.38;;
2538;SDS011;1280;49.760;9.664;2022-12-18T08:56:28;90.85;;;37.85;;
2538;SDS011;1280;49.760;9.664;2022-12-18T08:58:57;103.03;;;33.92;;
2538;SDS011;1280;49.760;9.664;2022-12-18T09:01:25;96.35;;;36.50;;
2538;SDS011;1280;49.760;9.664;2022-12-18T09:03:53;88.93;;;35.72;;
2538;SDS011;1280;49.760;9.664;2022-12-18T09:06:21;99.93;;;37.33;;
2538;SDS011;1280;49.760;9.664;2022-12-18T09:08:51;100.55;;;37.80;;
2538;SDS011;1280;49.760;9.664;2022-12-18T09:11:21;74.47;;;33.00;;
2538;SDS011;1280;49.760;9.664;2022-12-18T09:13:50;88.20;;;38.40;;
2538;SDS011;1280;49.760;9.664;2022-12-18T09:16:18;91.03;;;35.35;;
2538;SDS011;1280;49.760;9.664;2022-12-18T09:18:50;96.70;;;42.78;;
2538;SDS011;1280;49.760;9.664;2022-12-18T09:21:20;72.22;;;34.15;;
2538;SDS011;1280;49.760;9.664;2022-12-18T09:23:48;73.30;;;32.13;;
2538;SDS011;1280;49.760;9.664;2022-12-18T09:26:18;74.10;;;32.97;;
2538;SDS011;1280;49.760;9.664;2022-12-18T09:28:47;89.13;;;36.17;;
2538;SDS011;1280;49.760;9.664;2022-12-18T09:31:15;70.10;;;31.50;;
2538;SDS011;1280;49.760;9.664;2022-12-18T09:33:45;76.35;;;32.95;;
2538;SDS011;1280;49.760;9.664;2022-12-18T09:36:14;72.80;;;28.50;;
2538;SDS011;1280;49.760;9.664;2022-12-18T09:38:44;74.28;;;31.73;;
2538;SDS011;1280;49.760;9.664;2022-12-18T09:44:22;74.82;;;31.67;;
2538;SDS011;1280;49.760;9.664;2022-12-18T09:46:54;89.50;;;35.45;;
2538;SDS011;1280;49.760;9.664;2022-12-18T09:49:36;71.72;;;29.52;;
2538;SDS011;1280;49.760;9.664;2022-12-18T09:52:09;68.35;;;30.15;;
2538;SDS011;1280;49.760;9.664;2022-12-18T09:54:42;74.28;;;30.45;;
2538;SDS011;1280;49.760;9.664;2022-12-18T09:57:15;75.25;;;32.92;;
2538;SDS011;1280;49.760;9.664;2022-12-18T09:59:48;70.22;;;29.13;;
2538;SDS011;1280;49.760;9.664;2022-12-18T10:02:21;62.35;;;28.13;;
2538;SDS011;1280;49.760;9.664;2022-12-18T10:04:54;66.55;;;28.40;;
2538;SDS011;1280;49.760;9.664;2022-12-18T10:07:35;76.75;;;28.73;;
2538;SDS011;1280;49.760;9.664;2022-12-18T10:10:14;62.97;;;25.77;;
2538;SDS011;1280;49.760;9.664;2022-12-18T10:12:56;61.88;;;25.52;;
2538;SDS011;1280;49.760;9.664;2022-12-18T10:15:34;63.92;;;25.83;;
2538;SDS011;1280;49.760;9.664;2022-12-18T10:18:12;75.05;;;28.40;;
2538;SDS011;1280;49.760;9.664;2022-12-18T10:20:49;65.95;;;27.05;;
2538;SDS011;1280;49.760;9.664;2022-12-18T10:23:22;71.30;;;29.23;;
2538;SDS011;1280;49.760;9.664;2022-12-18T10:25:58;84.93;;;39.58;;
2538;SDS011;1280;49.760;9.664;2022-12-18T10:28:30;66.57;;;26.98;;
2538;SDS011;1280;49.760;9.664;2022-12-18T10:30:59;61.13;;;25.70;;
2538;SDS011;1280;49.760;9.664;2022-12-18T10:33:30;62.20;;;25.23;;
2538;SDS011;1280;49.760;9.664;2022-12-18T10:35:59;69.57;;;31.45;;
2538;SDS011;1280;49.760;9.664;2022-12-18T10:38:29;70.32;;;31.20;;
2538;SDS011;1280;49.760;9.664;2022-12-18T10:40:59;75.78;;;30.13;;
2538;SDS011;1280;49.760;9.664;2022-12-18T10:43:29;64.13;;;28.40;;
2538;SDS011;1280;49.760;9.664;2022-12-18T10:46:04;73.68;;;30.13;;
2538;SDS011;1280;49.760;9.664;2022-12-18T10:48:47;61.38;;;27.60;;
2538;SDS011;1280;49.760;9.664;2022-12-18T10:51:19;63.38;;;28.55;;
2538;SDS011;1280;49.760;9.664;2022-12-18T10:53:57;65.35;;;28.35;;
2538;SDS011;1280;49.760;9.664;2022-12-18T10:56:28;66.22;;;29.02;;
2538;SDS011;1280;49.760;9.664;2022-12-18T10:59:01;73.25;;;28.73;;
2538;SDS011;1280;49.760;9.664;2022-12-18T11:01:44;69.03;;;30.80;;
2538;SDS011;1280;49.760;9.664;2022-12-18T11:04:16;71.85;;;28.27;;
2538;SDS011;1280;49.760;9.664;2022-12-18T11:06:52;69.22;;;28.77;;
2538;SDS011;1280;49.760;9.664;2022-12-18T11:09:23;73.15;;;29.15;;
2538;SDS011;1280;49.760;9.664;2022-12-18T11:11:52;60.92;;;29.65;;
2538;SDS011;1280;49.760;9.664;2022-12-18T11:14:24;68.88;;;30.27;;
2538;SDS011;1280;49.760;9.664;2022-12-18T11:16:54;63.85;;;29.55;;
2538;SDS011;1280;49.760;9.664;2022-12-18T11:19:44;72.38;;;28.27;;
2538;SDS011;1280;49.760;9.664;2022-12-18T11:22:20;73.03;;;28.48;;
2538;SDS011;1280;49.760;9.664;2022-12-18T11:24:52;64.38;;;28.05;;
2538;SDS011;1280;49.760;9.664;2022-12-18T11:27:47;63.90;;;27.05;;
2538;SDS011;1280;49.760;9.664;2022-12-18T11:30:22;68.45;;;29.67;;
2538;SDS011;1280;49.760;9.664;2022-12-18T11:32:53;68.60;;;30.63;;
2538;SDS011;1280;49.760;9.664;2022-12-18T11:35:30;61.40;;;27.65;;
2538;SDS011;1280;49.760;9.664;2022-12-18T11:38:06;68.47;;;26.65;;
2538;SDS011;1280;49.760;9.664;2022-12-18T11:40:44;66.20;;;29.85;;
2538;SDS011;1280;49.760;9.664;2022-12-18T11:43:18;58.15;;;27.13;;
2538;SDS011;1280;49.760;9.664;2022-12-18T11:45:55;63.58;;;28.02;;
2538;SDS011;1280;49.760;9.664;2022-12-18T11:48:27;58.25;;;26.98;;
2538;SDS011;1280;49.760;9.664;2022-12-18T11:50:57;58.38;;;27.45;;
2538;SDS011;1280;49.760;9.664;2022-12-18T11:53:26;71.82;;;30.15;;
2538;SDS011;1280;49.760;9.664;2022-12-18T11:55:58;65.63;;;30.95;;
2538;SDS011;1280;49.760;9.664;2022-12-18T12:01:29;57.63;;;25.02;;
2538;SDS011;1280;49.760;9.664;2022-12-18T12:07:12;57.45;;;25.15;;
2538;SDS011;1280;49.760;9.664;2022-12-18T12:09:50;56.78;;;26.02;;
2538;SDS011;1280;49.760;9.664;2022-12-18T12:12:30;58.00;;;26.83;;
2538;SDS011;1280;49.760;9.664;2022-12-18T12:15:17;49.30;;;24.08;;
2538;SDS011;1280;49.760;9.664;2022-12-18T12:17:57;52.38;;;23.17;;
2538;SDS011;1280;49.760;9.664;2022-12-18T12:20:40;58.50;;;25.05;;
2538;SDS011;1280;49.760;9.664;2022-12-18T12:23:15;57.13;;;24.55;;
2538;SDS011;1280;49.760;9.664;2022-12-18T12:25:55;46.10;;;23.77;;
2538;SDS011;1280;49.760;9.664;2022-12-18T12:28:35;54.50;;;25.23;;
2538;SDS011;1280;49.760;9.664;2022-12-18T12:31:16;52.40;;;23.20;;
2538;SDS011;1280;49.760;9.664;2022-12-18T12:33:55;63.78;;;23.95;;
2538;SDS011;1280;49.760;9.664;2022-12-18T12:36:30;48.70;;;22.35;;
2538;SDS011;1280;49.760;9.664;2022-12-18T12:39:08;63.90;;;26.65;;
2538;SDS011;1280;49.760;9.664;2022-12-18T12:41:42;68.90;;;28.33;;
2538;SDS011;1280;49.760;9.664;2022-12-18T12:44:30;69.32;;;25.98;;
2538;SDS011;1280;49.760;9.664;2022-12-18T12:47:04;52.28;;;24.20;;
2538;SDS011;1280;49.760;9.664;2022-12-18T12:49:40;65.65;;;27.73;;
2538;SDS011;1280;49.760;9.664;2022-12-18T12:52:16;55.45;;;23.63;;
2538;SDS011;1280;49.760;9.664;2022-12-18T12:54:53;56.40;;;26.55;;
2538;SDS011;1280;49.760;9.664;2022-12-18T12:57:23;61.25;;;26.20;;
2538;SDS011;1280;49.760;9.664;2022-12-18T12:59:59;57.08;;;25.88;;
2538;SDS011;1280;49.760;9.664;2022-12-18T13:02:31;60.35;;;26.17;;
2538;SDS011;1280;49.760;9.664;2022-12-18T13:05:07;55.17;;;22.88;;
2538;SDS011;1280;49.760;9.664;2022-12-18T13:07:46;54.72;;;26.00;;
2538;SDS011;1280;49.760;9.664;2022-12-18T13:10:26;59.53;;;27.35;;
2538;SDS011;1280;49.760;9.664;2022-12-18T13:13:00;57.58;;;28.33;;
2538;SDS011;1280;49.760;9.664;2022-12-18T13:15:32;71.75;;;28.73;;
2538;SDS011;1280;49.760;9.664;2022-12-18T13:18:09;72.70;;;26.83;;
2538;SDS011;1280;49.760;9.664;2022-12-18T13:20:43;68.75;;;28.98;;
2538;SDS011;1280;49.760;9.664;2022-12-18T13:23:28;55.63;;;26.08;;
2538;SDS011;1280;49.760;9.664;2022-12-18T13:29:00;62.10;;;28.23;;
2538;SDS011;1280;49.760;9.664;2022-12-18T13:34:35;61.83;;;27.02;;
2538;SDS011;1280;49.760;9.664;2022-12-18T13:43:30;58.80;;;25.77;;
2538;SDS011;1280;49.760;9.664;2022-12-18T13:46:03;54.10;;;24.98;;
2538;SDS011;1280;49.760;9.664;2022-12-18T13:48:33;58.75;;;28.63;;
2538;SDS011;1280;49.760;9.664;2022-12-18T13:51:05;53.88;;;25.50;;
2538;SDS011;1280;49.760;9.664;2022-12-18T13:53:38;55.22;;;27.38;;
2538;SDS011;1280;49.760;9.664;2022-12-18T13:56:15;58.38;;;27.10;;
2538;SDS011;1280;49.760;9.664;2022-12-18T13:58:44;59.25;;;27.05;;
2538;SDS011;1280;49.760;9.664;2022-12-18T14:01:21;51.03;;;24.70;;
2538;SDS011;1280;49.760;9.664;2022-12-18T14:03:50;64.47;;;25.98;;
2538;SDS011;1280;49.760;9.664;2022-12-18T14:06:18;54.72;;;25.38;;
2538;SDS011;1280;49.760;9.664;2022-12-18T14:08:47;53.08;;;25.70;;
2538;SDS011;1280;49.760;9.664;2022-12-18T14:11:18;61.92;;;27.65;;
2538;SDS011;1280;49.760;9.664;2022-12-18T14:13:52;52.85;;;25.02;;
2538;SDS011;1280;49.760;9.664;2022-12-18T14:16:20;49.53;;;25.13;;
2538;SDS011;1280;49.760;9.664;2022-12-18T14:18:53;64.97;;;29.77;;
2538;SDS011;1280;49.760;9.664;2022-12-18T14:21:40;56.78;;;27.08;;
2538;SDS011;1280;49.760;9.664;2022-12-18T14:24:14;56.72;;;28.70;;
2538;SDS011;1280;49.760;9.664;2022-12-18T14:26:45;53.28;;;26.98;;
2538;SDS011;1280;49.760;9.664;2022-12-18T14:29:25;59.05;;;28.20;;
2538;SDS011;1280;49.760;9.664;2022-12-18T14:32:04;62.55;;;28.83;;
2538;SDS011;1280;49.760;9.664;2022-12-18T14:34:43;55.55;;;25.67;;
2538;SDS011;1280;49.760;9.664;2022-12-18T14:37:11;51.83;;;26.30;;
2538;SDS011;1280;49.760;9.664;2022-12-18T14:39:52;62.75;;;26.52;;
2538;SDS011;1280;49.760;9.664;2022-12-18T14:42:22;56.08;;;25.67;;
2538;SDS011;1280;49.760;9.664;2022-12-18T14:48:08;77.57;;;35.17;;
2538;SDS011;1280;49.760;9.664;2022-12-18T14:50:44;70.90;;;32.28;;
2538;SDS011;1280;49.760;9.664;2022-12-18T14:53:22;60.20;;;27.95;;
2538;SDS011;1280;49.760;9.664;2022-12-18T14:55:56;50.60;;;27.20;;
2538;SDS011;1280;49.760;9.664;2022-12-18T14:58:24;52.80;;;25.90;;
2538;SDS011;1280;49.760;9.664;2022-12-18T15:00:54;55.13;;;25.83;;
2538;SDS011;1280;49.760;9.664;2022-12-18T15:03:22;59.08;;;28.42;;
2538;SDS011;1280;49.760;9.664;2022-12-18T15:05:51;60.70;;;30.10;;
2538;SDS011;1280;49.760;9.664;2022-12-18T15:08:30;52.08;;;25.60;;
2538;SDS011;1280;49.760;9.664;2022-12-18T15:13:54;51.00;;;25.02;;
2538;SDS011;1280;49.760;9.664;2022-12-18T15:16:22;55.05;;;26.35;;
2538;SDS011;1280;49.760;9.664;2022-12-18T15:18:50;54.65;;;24.48;;
2538;SDS011;1280;49.760;9.664;2022-12-18T15:21:19;55.42;;;24.48;;
2538;SDS011;1280;49.760;9.664;2022-12-18T15:23:49;57.83;;;27.40;;
2538;SDS011;1280;49.760;9.664;2022-12-18T15:26:18;87.00;;;32.20;;
2538;SDS011;1280;49.760;9.664;2022-12-18T15:28:50;64.38;;;30.88;;
2538;SDS011;1280;49.760;9.664;2022-12-18T15:31:23;70.22;;;29.90;;
2538;SDS011;1280;49.760;9.664;2022-12-18T15:36:46;67.18;;;29.45;;
2538;SDS011;1280;49.760;9.664;2022-12-18T15:39:14;66.00;;;30.45;;
2538;SDS011;1280;49.760;9.664;2022-12-18T15:41:42;56.67;;;27.75;;
2538;SDS011;1280;49.760;9.664;2022-12-18T15:44:32;52.55;;;25.08;;
2538;SDS011;1280;49.760;9.664;2022-12-18T15:46:59;57.40;;;29.38;;
2538;SDS011;1280;49.760;9.664;2022-12-18T15:49:27;49.75;;;25.55;;
2538;SDS011;1280;49.760;9.664;2022-12-18T15:51:56;76.00;;;33.85;;